Time;durP1;ratioP1;P1;durP2;ratioP2;P2;SDS_P1;SDS_P2;PMS_P1;PMS_P2;Temp;Humidity;BMP_temperature;BMP_pressure;BME280_temperature;BME280_humidity;BME280_pressure;Samples;Min_cycle;Max_cycle;Signal;HPM_P1;HPM_P2
2022/05/27 00:01:09;;;;;;;9.25;2.58;;;22.40;81.30;;;;;;5074443;28;20573;-69
2022/05/27 00:03:35;;;;;;;8.43;3.25;;;22.50;82.20;;;;;;5075241;28;20044;-69
2022/05/27 00:06:01;;;;;;;8.40;2.67;;;22.40;82.20;;;;;;5075252;28;20049;-69
2022/05/27 00:08:26;;;;;;;6.65;2.50;;;22.50;81.70;;;;;;5072999;28;20048;-69
2022/05/27 00:10:54;;;;;;;7.15;2.60;;;22.30;82.20;;;;;;5074051;28;20048;-68
2022/05/27 00:13:19;;;;;;;9.70;3.00;;;22.60;82.50;;;;;;5090832;28;20048;-69
2022/05/27 00:15:45;;;;;;;7.50;2.35;;;22.40;85.20;;;;;;5106667;28;20106;-69
2022/05/27 00:18:11;;;;;;;8.00;2.35;;;22.60;82.10;;;;;;5072548;28;20131;-70
2022/05/27 00:20:37;;;;;;;8.70;3.22;;;22.30;82.10;;;;;;5074486;28;20040;-69
2022/05/27 00:23:03;;;;;;;8.18;2.55;;;22.60;82.40;;;;;;5072875;28;20056;-69
2022/05/27 00:25:29;;;;;;;6.53;1.90;;;22.40;82.20;;;;;;5073328;28;20110;-69
2022/05/27 00:27:55;;;;;;;8.15;3.10;;;22.50;85.30;;;;;;5106168;28;20048;-69
2022/05/27 00:30:21;;;;;;;7.25;2.55;;;22.30;82.30;;;;;;5073834;28;20110;-69
2022/05/27 00:32:47;;;;;;;8.20;2.13;;;22.50;82.30;;;;;;5056807;28;20482;-70
2022/05/27 00:35:13;;;;;;;7.63;2.17;;;22.30;85.70;;;;;;5074814;28;20040;-68
2022/05/27 00:37:38;;;;;;;7.43;2.08;;;22.60;82.50;;;;;;5071314;28;20076;-69
2022/05/27 00:40:05;;;;;;;8.32;2.28;;;22.50;82.30;;;;;;5072238;28;20114;-70
2022/05/27 00:42:32;;;;;;;6.18;2.30;;;22.50;81.90;;;;;;5073313;28;20049;-69
2022/05/27 00:44:57;;;;;;;8.35;2.00;;;22.50;82.20;;;;;;5074856;28;20060;-70
2022/05/27 00:47:24;;;;;;;5.60;2.40;;;22.40;85.30;;;;;;5073896;28;20163;-70
2022/05/27 00:49:55;;;;;;;7.93;2.10;;;22.50;82.60;;;;;;5087571;28;20048;-70
2022/05/27 00:52:22;;;;;;;6.25;2.20;;;22.50;82.90;;;;;;5038106;28;20555;-70
2022/05/27 00:54:48;;;;;;;8.55;2.40;;;22.30;82.50;;;;;;5090654;28;20040;-69
2022/05/27 00:57:18;;;;;;;6.40;2.17;;;22.50;82.40;;;;;;5089876;28;20378;-70
2022/05/27 01:00:04;;;;;;;6.63;2.25;;;22.50;81.10;;;;;;5088664;28;20522;-70
2022/05/27 01:02:30;;;;;;;8.63;2.78;;;22.40;81.10;;;;;;5072822;28;20432;-70
2022/05/27 01:04:57;;;;;;;5.70;2.03;;;22.30;82.20;;;;;;5072308;28;20047;-69
2022/05/27 01:07:23;;;;;;;7.43;1.92;;;22.60;82.80;;;;;;5089385;28;20040;-69
2022/05/27 01:09:49;;;;;;;6.32;2.22;;;22.10;82.10;;;;;;5072662;28;20375;-68
2022/05/27 01:12:34;;;;;;;6.30;2.25;;;22.60;82.50;;;;;;5088984;28;20051;-69
2022/05/27 01:15:18;;;;;;;8.52;2.20;;;22.50;82.80;;;;;;5104804;28;20056;-70
2022/05/27 01:18:21;;;;;;;8.90;2.10;;;22.50;81.40;;;;;;5072516;28;20493;-68
2022/05/27 01:20:51;;;;;;;8.30;2.28;;;22.50;85.20;;;;;;5072571;28;20076;-68
2022/05/27 01:23:23;;;;;;;7.25;2.17;;;22.30;82.30;;;;;;5089105;28;20068;-69
2022/05/27 01:26:22;;;;;;;6.95;2.10;;;22.30;82.70;;;;;;5071820;28;20402;-69
2022/05/27 01:29:25;;;;;;;7.15;2.20;;;22.40;81.60;;;;;;5087201;28;20040;-69
2022/05/27 01:32:22;;;;;;;5.75;1.90;;;22.20;81.50;;;;;;5073160;28;20040;-69
2022/05/27 01:35:00;;;;;;;7.25;2.13;;;22.20;81.10;;;;;;5029846;28;20045;-69
2022/05/27 01:37:37;;;;;;;5.78;2.00;;;22.20;85.20;;;;;;5030070;28;20042;-69
2022/05/27 01:40:10;;;;;;;7.40;2.17;;;22.30;81.30;;;;;;5031136;28;20061;-68
2022/05/27 01:42:58;;;;;;;9.55;2.08;;;22.40;81.30;;;;;;5047917;28;20546;-68
2022/05/27 01:45:46;;;;;;;5.57;2.00;;;22.20;81.40;;;;;;5012997;28;20064;-69
2022/05/27 01:48:17;;;;;;;6.90;1.95;;;22.30;83.10;;;;;;5014165;28;20049;-69
2022/05/27 01:51:02;;;;;;;5.60;2.17;;;22.20;82.60;;;;;;5012860;28;20053;-68
2022/05/27 01:53:45;;;;;;;8.68;1.90;;;22.20;81.40;;;;;;5015007;28;20137;-69
2022/05/27 01:56:27;;;;;;;7.70;2.15;;;22.30;85.10;;;;;;5030047;28;20041;-69
2022/05/27 01:58:59;;;;;;;6.43;1.95;;;22.20;81.10;;;;;;5030242;28;20473;-68
2022/05/27 02:01:28;;;;;;;6.45;1.77;;;22.10;80.90;;;;;;4995235;28;20050;-69
2022/05/27 02:04:06;;;;;;;7.57;2.35;;;22.10;82.40;;;;;;5011557;28;20096;-69
2022/05/27 02:06:36;;;;;;;5.78;1.80;;;22.40;85.50;;;;;;4997542;28;20106;-68
2022/05/27 02:09:14;;;;;;;8.13;2.50;;;22.10;85.10;;;;;;5030375;28;20085;-68
2022/05/27 02:11:40;;;;;;;5.97;1.90;;;22.40;81.30;;;;;;5071112;28;20406;-69
2022/05/27 02:14:08;;;;;;;6.68;1.80;;;21.90;85.10;;;;;;5068824;28;20088;-69
2022/05/27 02:16:54;;;;;;;7.00;1.73;;;22.10;85.30;;;;;;5032083;28;20049;-69
2022/05/27 02:19:32;;;;;;;6.40;1.80;;;22.20;81.20;;;;;;5049709;28;20449;-69
2022/05/27 02:22:01;;;;;;;8.00;2.50;;;21.90;81.00;;;;;;5083673;28;20044;-69
2022/05/27 02:24:56;;;;;;;6.47;1.88;;;22.10;80.10;;;;;;5067970;28;20461;-71
2022/05/27 02:27:31;;;;;;;9.05;2.30;;;22.10;81.10;;;;;;5052373;28;20107;-69
2022/05/27 02:29:59;;;;;;;6.03;2.00;;;22.10;85.10;;;;;;5050312;28;20108;-69
2022/05/27 02:32:31;;;;;;;6.50;2.00;;;22.10;82.40;;;;;;5050972;28;20045;-68
2022/05/27 02:35:08;;;;;;;;;;;22.20;80.90;;;;;;5050514;28;20045;-69
2022/05/27 02:37:50;;;;;;;6.57;2.50;;;22.10;82.70;;;;;;5053143;28;19927;-69
2022/05/27 02:40:42;;;;;;;8.27;2.33;;;21.90;80.80;;;;;;5034191;28;20067;-69
2022/05/27 02:43:18;;;;;;;6.00;1.88;;;22.00;84.90;;;;;;5045164;28;20373;-69
2022/05/27 02:46:11;;;;;;;7.45;2.60;;;21.90;80.70;;;;;;5103852;28;20502;-69
2022/05/27 02:49:04;;;;;;;10.25;2.65;;;22.10;81.00;;;;;;5069154;28;20503;-69
2022/05/27 02:51:58;;;;;;;8.35;2.00;;;22.00;80.60;;;;;;5062631;28;20048;-70
2022/05/27 02:54:47;;;;;;;6.18;2.05;;;22.00;85.00;;;;;;5068621;28;20471;-69
2022/05/27 02:57:25;;;;;;;5.80;2.10;;;22.00;80.60;;;;;;5068889;28;20058;-69
2022/05/27 02:59:51;;;;;;;4.28;1.63;;;21.80;84.80;;;;;;5074510;28;20136;-70
2022/05/27 03:02:17;;;;;;;9.77;2.63;;;21.90;82.00;;;;;;5074582;28;20119;-69
2022/05/27 03:04:46;;;;;;;7.00;2.13;;;22.00;81.70;;;;;;5109049;28;20513;-69
2022/05/27 03:07:49;;;;;;;7.13;1.83;;;22.00;82.00;;;;;;5091431;28;20065;-69
2022/05/27 03:10:41;;;;;;;9.00;1.90;;;22.00;84.50;;;;;;5075112;28;20049;-70
2022/05/27 03:13:07;;;;;;;6.75;2.10;;;21.90;80.90;;;;;;5075294;28;20048;-69
2022/05/27 03:15:51;;;;;;;8.75;1.98;;;21.80;81.50;;;;;;5075211;28;20043;-70
2022/05/27 03:18:22;;;;;;;7.15;1.80;;;21.80;84.30;;;;;;5075248;28;20508;-70
2022/05/27 03:20:57;;;;;;;6.05;1.80;;;21.40;80.20;;;;;;5073942;28;20051;-69
2022/05/27 03:23:29;;;;;;;6.80;2.10;;;21.50;84.50;;;;;;5089956;28;20102;-69
2022/05/27 03:26:14;;;;;;;7.22;1.80;;;21.90;84.30;;;;;;5108447;28;20511;-69
2022/05/27 03:28:43;;;;;;;7.88;2.00;;;22.00;80.60;;;;;;5074897;28;20052;-69
2022/05/27 03:31:15;;;;;;;7.05;2.20;;;21.80;81.60;;;;;;5075342;28;20125;-69
2022/05/27 03:33:44;;;;;;;6.95;2.00;;;22.00;81.50;;;;;;5072626;28;20041;-69
2022/05/27 03:36:36;;;;;;;6.38;1.83;;;21.60;81.40;;;;;;5076190;28;20071;-69
2022/05/27 03:39:15;;;;;;;7.93;2.28;;;21.70;84.20;;;;;;5089292;28;20060;-70
2022/05/27 03:41:46;;;;;;;8.98;2.47;;;21.50;81.40;;;;;;5105633;28;20037;-69
2022/05/27 03:44:16;;;;;;;4.68;1.60;;;21.60;81.50;;;;;;5073619;28;20048;-69
2022/05/27 03:46:41;;;;;;;6.95;2.00;;;21.60;81.40;;;;;;5074492;28;20110;-69
2022/05/27 03:49:07;;;;;;;6.38;1.70;;;21.80;83.90;;;;;;5076223;28;20060;-69
2022/05/27 03:51:54;;;;;;;6.38;2.10;;;21.80;81.00;;;;;;5062991;28;20048;-69
2022/05/27 03:54:21;;;;;;;7.65;1.80;;;21.70;84.00;;;;;;5072919;28;20139;-70
2022/05/27 03:56:47;;;;;;;8.93;1.90;;;21.80;81.00;;;;;;5075747;28;20130;-70
2022/05/27 03:59:13;;;;;;;10.82;1.95;;;21.70;83.60;;;;;;5073980;28;20512;-69
2022/05/27 04:01:41;;;;;;;5.10;1.60;;;21.80;81.10;;;;;;5074378;28;20041;-69
2022/05/27 04:04:08;;;;;;;5.57;1.85;;;21.80;83.60;;;;;;5056657;28;20048;-69
2022/05/27 04:06:34;;;;;;;6.53;2.05;;;21.90;81.00;;;;;;5074209;28;20048;-69
2022/05/27 04:08:59;;;;;;;6.45;2.15;;;21.80;83.60;;;;;;5075062;28;20041;-70
2022/05/27 04:11:25;;;;;;;6.65;2.03;;;21.70;80.60;;;;;;5075445;28;20059;-70
2022/05/27 04:13:51;;;;;;;7.00;2.00;;;21.50;83.20;;;;;;5090879;28;20071;-70
2022/05/27 04:16:17;;;;;;;8.85;1.90;;;21.60;80.30;;;;;;5106365;28;20123;-69
2022/05/27 04:18:43;;;;;;;8.15;2.03;;;;;;;;;;5072672;28;20052;-69
2022/05/27 04:21:09;;;;;;;7.88;2.00;;;21.60;82.90;;;;;;5071400;28;20086;-68
2022/05/27 04:23:35;;;;;;;5.43;1.75;;;22.00;80.40;;;;;;5073429;28;20049;-69
2022/05/27 04:26:01;;;;;;;8.77;2.05;;;22.10;80.40;;;;;;5073138;28;20470;-70
2022/05/27 04:28:27;;;;;;;7.25;2.17;;;21.80;80.00;;;;;;5057295;28;20094;-69
2022/05/27 04:30:52;;;;;;;7.03;2.13;;;22.00;83.00;;;;;;5055987;28;20457;-70
2022/05/27 04:33:18;;;;;;;6.95;1.98;;;21.90;79.90;;;;;;5074896;28;20045;-69
2022/05/27 04:35:44;;;;;;;7.53;1.73;;;21.90;82.80;;;;;;5056227;28;20128;-69
2022/05/27 04:38:10;;;;;;;6.72;1.75;;;21.90;79.90;;;;;;5072304;28;20116;-69
2022/05/27 04:40:36;;;;;;;8.43;2.03;;;22.10;79.90;;;;;;5073912;28;20460;-70
2022/05/27 04:43:02;;;;;;;5.57;1.98;;;21.90;79.60;;;;;;5072862;28;20505;-70
2022/05/27 04:45:28;;;;;;;7.53;2.03;;;22.10;79.70;;;;;;5107200;28;20083;-70
2022/05/27 04:47:54;;;;;;;8.10;2.00;;;22.00;79.80;;;;;;5089933;28;20454;-70
2022/05/27 04:50:20;;;;;;;6.57;2.20;;;21.80;82.40;;;;;;5072754;28;20076;-70
2022/05/27 04:52:46;;;;;;;6.25;1.83;;;22.00;79.50;;;;;;5065911;28;20440;-69
2022/05/27 04:55:13;;;;;;;5.88;1.65;;;21.90;79.30;;;;;;5072976;28;20048;-69
2022/05/27 04:57:47;;;;;;;6.57;1.63;;;22.10;79.70;;;;;;5106818;28;20493;-70
2022/05/27 05:00:17;;;;;;;5.97;1.95;;;22.20;82.20;;;;;;5072523;28;20130;-69
2022/05/27 05:02:43;;;;;;;7.70;1.95;;;22.20;78.10;;;;;;5088340;28;20115;-69
2022/05/27 05:05:14;;;;;;;4.90;1.80;;;22.00;79.10;;;;;;5089702;28;20128;-69
2022/05/27 05:07:43;;;;;;;6.45;2.00;;;22.30;79.60;;;;;;5105221;28;20075;-70
2022/05/27 05:10:10;;;;;;;7.63;1.92;;;22.20;82.20;;;;;;5088638;28;20040;-69
2022/05/27 05:12:36;;;;;;;8.05;2.40;;;22.10;79.00;;;;;;5073224;28;20101;-69
2022/05/27 05:15:01;;;;;;;6.88;2.15;;;22.10;79.00;;;;;;5089583;28;20040;-69
2022/05/27 05:17:27;;;;;;;8.15;2.40;;;22.10;79.00;;;;;;5073861;28;20115;-69
2022/05/27 05:19:55;;;;;;;6.25;1.73;;;22.10;78.70;;;;;;5070567;28;20045;-69
2022/05/27 05:22:22;;;;;;;6.88;2.28;;;22.40;82.10;;;;;;5073218;28;20076;-69
2022/05/27 05:24:48;;;;;;;9.45;2.00;;;22.10;79.20;;;;;;5071898;28;20394;-69
2022/05/27 05:27:14;;;;;;;5.88;1.88;;;22.40;79.10;;;;;;5073984;28;20059;-70
2022/05/27 05:29:40;;;;;;;6.05;1.85;;;22.10;78.90;;;;;;5055309;28;20052;-70
2022/05/27 05:32:06;;;;;;;7.35;1.90;;;22.20;79.00;;;;;;5073361;28;20374;-69
2022/05/27 05:34:32;;;;;;;6.22;1.85;;;22.10;78.70;;;;;;5072964;28;20072;-68
2022/05/27 05:36:58;;;;;;;6.10;1.92;;;22.40;78.90;;;;;;5073568;28;20083;-69
2022/05/27 05:39:24;;;;;;;6.13;2.00;;;22.20;78.70;;;;;;5073273;28;20055;-69
2022/05/27 05:42:00;;;;;;;6.18;1.85;;;22.20;78.60;;;;;;5071680;28;20378;-69
2022/05/27 05:44:26;;;;;;;4.88;1.60;;;22.50;79.30;;;;;;5087692;28;20060;-69
2022/05/27 05:46:53;;;;;;;5.47;1.50;;;22.70;81.90;;;;;;5089723;28;20064;-67
2022/05/27 05:49:19;;;;;;;6.80;1.98;;;22.90;78.80;;;;;;5087003;28;20044;-69
2022/05/27 05:51:45;;;;;;;7.32;1.90;;;22.80;78.20;;;;;;5073260;28;20067;-69
2022/05/27 05:54:10;;;;;;;5.97;1.70;;;23.20;77.90;;;;;;5071514;28;20032;-70
2022/05/27 05:56:36;;;;;;;4.38;1.70;;;23.10;77.70;;;;;;5072713;28;20048;-69
2022/05/27 05:59:02;;;;;;;6.05;1.95;;;23.30;77.50;;;;;;5073061;28;20489;-67
2022/05/27 06:01:28;;;;;;;6.03;1.95;;;23.50;77.50;;;;;;5071721;28;20047;-69
2022/05/27 06:03:54;;;;;;;5.57;1.60;;;23.60;77.30;;;;;;5071359;28;20468;-69
2022/05/27 06:06:19;;;;;;;6.03;2.15;;;23.30;77.00;;;;;;5072749;28;20045;-69
2022/05/27 06:08:45;;;;;;;7.38;2.03;;;23.20;76.90;;;;;;5073433;28;20397;-69
2022/05/27 06:11:11;;;;;;;5.47;1.92;;;23.20;77.00;;;;;;5073504;28;20443;-69
2022/05/27 06:13:37;;;;;;;8.60;2.13;;;23.50;77.10;;;;;;5072173;28;20432;-70
2022/05/27 06:16:04;;;;;;;6.97;2.38;;;23.60;77.20;;;;;;5071643;28;20481;-70
2022/05/27 06:18:29;;;;;;;7.03;2.00;;;23.40;76.50;;;;;;5072450;28;20072;-69
2022/05/27 06:20:55;;;;;;;8.85;2.35;;;23.60;76.90;;;;;;5071213;28;20129;-68
2022/05/27 06:23:22;;;;;;;8.27;2.15;;;23.60;79.10;;;;;;5071662;28;20502;-70
2022/05/27 06:25:57;;;;;;;6.97;2.25;;;23.70;76.60;;;;;;5074947;28;20037;-69
2022/05/27 06:36:35;;;;;;;5.80;1.95;;;24.10;74.90;;;;;;5077419;28;20050;-68
2022/05/27 06:39:03;;;;;;;6.82;1.98;;;23.90;75.20;;;;;;5074423;28;20501;-69
2022/05/27 06:41:29;;;;;;;7.28;2.13;;;24.40;75.80;;;;;;5076251;28;20037;-69
2022/05/27 06:43:55;;;;;;;7.53;2.70;;;24.20;75.10;;;;;;5075845;28;20400;-70
2022/05/27 06:46:21;;;;;;;4.88;1.80;;;24.30;75.20;;;;;;5075387;28;20374;-69
2022/05/27 06:48:47;;;;;;;5.25;1.73;;;24.60;75.00;;;;;;5091571;28;20045;-74
2022/05/27 06:51:13;;;;;;;7.30;2.38;;;24.70;75.00;;;;;;5054002;28;20045;-72
2022/05/27 06:53:39;;;;;;;8.90;2.33;;;24.80;74.70;;;;;;5075523;28;20146;-73
2022/05/27 06:56:05;;;;;;;8.00;1.92;;;24.60;74.80;;;;;;5069211;28;20510;-73
2022/05/27 06:58:31;;;;;;;5.95;2.05;;;24.60;74.40;;;;;;5109451;28;20127;-72
2022/05/27 07:00:57;;;;;;;7.30;1.88;;;24.60;74.60;;;;;;5075213;28;20553;-69
2022/05/27 07:03:23;;;;;;;9.43;2.33;;;24.90;74.50;;;;;;5075835;28;20079;-73
2022/05/27 07:05:48;;;;;;;4.75;1.77;;;24.60;74.40;;;;;;5076093;28;20094;-73
2022/05/27 07:08:14;;;;;;;6.50;1.90;;;24.80;74.20;;;;;;5076349;28;20127;-73
2022/05/27 07:10:40;;;;;;;6.05;2.03;;;25.20;74.50;;;;;;5073701;28;20024;-72
2022/05/27 07:13:06;;;;;;;6.63;2.22;;;25.00;73.90;;;;;;5075697;28;20501;-70
2022/05/27 07:15:31;;;;;;;6.68;2.30;;;24.90;74.80;;;;;;5074002;28;20387;-71
2022/05/27 07:17:57;;;;;;;6.95;2.30;;;25.00;74.30;;;;;;5074541;28;20055;-68
2022/05/27 07:20:23;;;;;;;5.65;2.03;;;24.80;74.20;;;;;;5073664;28;20452;-70
2022/05/27 07:22:49;;;;;;;6.10;2.15;;;24.80;74.20;;;;;;5088089;28;20048;-72
2022/05/27 07:25:15;;;;;;;7.28;2.08;;;24.90;74.40;;;;;;5073416;28;20056;-72
2022/05/27 07:27:41;;;;;;;5.30;1.77;;;24.90;74.40;;;;;;5075360;28;20044;-71
2022/05/27 07:30:08;;;;;;;7.63;2.13;;;25.10;74.50;;;;;;5076583;28;20044;-72
2022/05/27 07:32:35;;;;;;;6.03;1.90;;;25.00;74.40;;;;;;5107681;28;20081;-73
2022/05/27 07:35:02;;;;;;;4.93;2.10;;;24.90;74.20;;;;;;5075152;28;20075;-72
2022/05/27 07:37:28;;;;;;;6.95;1.83;;;24.90;74.80;;;;;;5075012;28;20071;-71
2022/05/27 07:39:53;;;;;;;8.38;2.25;;;25.00;74.60;;;;;;5056858;28;20087;-70
2022/05/27 07:42:19;;;;;;;4.88;1.88;;;24.80;74.60;;;;;;5075284;28;20094;-70
2022/05/27 07:44:45;;;;;;;6.60;2.00;;;24.70;74.50;;;;;;5071540;28;20037;-71
2022/05/27 07:47:11;;;;;;;5.65;1.92;;;24.80;75.40;;;;;;5090378;28;20050;-70
2022/05/27 07:49:36;;;;;;;7.97;2.45;;;25.20;74.70;;;;;;5075093;28;20036;-71
2022/05/27 07:52:03;;;;;;;6.78;1.80;;;27.00;76.10;;;;;;5107136;28;20048;-70
2022/05/27 07:54:29;;;;;;;5.05;2.00;;;25.20;74.70;;;;;;5036923;28;20131;-71
2022/05/27 07:56:54;;;;;;;7.97;2.08;;;25.20;74.80;;;;;;5086655;28;20120;-70
2022/05/27 07:59:20;;;;;;;7.45;2.28;;;25.20;74.60;;;;;;5056520;28;20052;-71
2022/05/27 08:01:46;;;;;;;7.35;2.15;;;25.00;74.40;;;;;;5074371;28;20184;-71
2022/05/27 08:04:12;;;;;;;7.82;2.85;;;25.20;74.60;;;;;;5073554;28;20094;-71
2022/05/27 08:06:38;;;;;;;6.82;2.10;;;25.20;74.60;;;;;;5101625;28;20119;-71
2022/05/27 08:09:04;;;;;;;8.32;2.25;;;24.80;74.40;;;;;;5055547;28;20044;-71
2022/05/27 08:11:29;;;;;;;6.68;2.40;;;25.10;74.60;;;;;;5090727;28;20041;-70
2022/05/27 08:13:55;;;;;;;7.78;2.35;;;25.00;74.40;;;;;;5074209;28;20093;-71
2022/05/27 08:16:22;;;;;;;9.98;2.38;;;25.00;74.80;;;;;;5073621;28;20631;-70
2022/05/27 08:18:48;;;;;;;6.30;1.88;;;25.00;74.60;;;;;;5073758;28;20048;-72
2022/05/27 08:21:13;;;;;;;4.90;1.80;;;24.80;74.50;;;;;;5074772;28;20041;-71
2022/05/27 08:23:39;;;;;;;8.10;2.95;;;24.90;74.40;;;;;;5074277;28;20044;-71
2022/05/27 08:26:05;;;;;;;7.03;2.30;;;25.20;74.80;;;;;;5074139;28;20049;-71
2022/05/27 08:28:31;;;;;;;7.22;2.05;;;25.10;74.60;;;;;;5071674;28;20402;-71
2022/05/27 08:30:58;;;;;;;7.72;2.80;;;25.00;74.50;;;;;;5072853;28;20090;-71
2022/05/27 08:33:24;;;;;;;8.07;2.60;;;25.20;74.40;;;;;;5105945;28;20435;-71
2022/05/27 08:38:36;;;;;;;9.27;2.80;;;25.10;74.60;;;;;;5070443;28;20551;-73
2022/05/27 08:41:07;;;;;;;10.93;3.17;;;25.10;74.20;;;;;;5072080;28;20052;-65
2022/05/27 08:43:54;;;;;;;8.02;2.53;;;25.00;74.60;;;;;;5072889;28;20052;-70
2022/05/27 08:46:38;;;;;;;11.52;3.00;;;25.10;73.30;;;;;;5102827;28;20045;-70
2022/05/27 08:49:06;;;;;;;11.40;3.42;;;25.10;74.80;;;;;;5106254;28;20056;-71
2022/05/27 08:51:54;;;;;;;9.57;2.72;;;25.10;74.90;;;;;;5088491;28;20048;-65
2022/05/27 08:54:24;;;;;;;8.00;2.95;;;24.80;73.40;;;;;;5073496;28;20052;-70
2022/05/27 08:59:40;;;;;;;13.52;3.55;;;25.00;73.50;;;;;;5066342;28;20588;-66
2022/05/27 09:02:18;;;;;;;8.88;3.17;;;24.80;73.30;;;;;;5054276;28;20037;-71
2022/05/27 09:04:48;;;;;;;9.65;3.45;;;22.90;72.30;;;;;;5071704;28;20036;-71
2022/05/27 09:07:30;;;;;;;7.50;2.78;;;24.90;73.50;;;;;;5074039;28;20079;-71
2022/05/27 09:09:57;;;;;;;10.80;3.35;;;24.80;73.70;;;;;;5053890;28;20574;-71
2022/05/27 09:12:25;;;;;;;9.90;3.35;;;24.60;75.00;;;;;;5068787;28;20048;-71
2022/05/27 09:15:12;;;;;;;8.73;3.45;;;24.60;75.10;;;;;;5072842;28;20039;-71
2022/05/27 09:17:42;;;;;;;15.63;3.95;;;24.80;74.10;;;;;;5073102;28;20051;-70
2022/05/27 09:20:33;;;;;;;7.57;3.00;;;24.80;75.40;;;;;;5072708;28;20044;-71
2022/05/27 09:23:25;;;;;;;11.95;3.30;;;24.80;75.60;;;;;;5050928;28;20041;-71
2022/05/27 09:25:55;;;;;;;11.23;3.13;;;24.90;74.30;;;;;;5044763;28;20052;-71
2022/05/27 09:28:49;;;;;;;13.35;3.40;;;24.80;75.20;;;;;;5069029;28;20560;-70
2022/05/27 09:31:18;;;;;;;8.95;3.30;;;24.80;74.00;;;;;;5052808;28;20112;-70
2022/05/27 09:33:44;;;;;;;8.88;3.15;;;24.60;74.90;;;;;;5053876;28;20446;-70
2022/05/27 09:36:35;;;;;;;9.63;3.65;;;24.80;74.90;;;;;;5072444;28;20083;-70
2022/05/27 09:39:01;;;;;;;10.02;2.80;;;24.80;73.50;;;;;;5043909;28;20064;-71
2022/05/27 09:41:47;;;;;;;10.43;3.78;;;24.80;75.10;;;;;;5031740;28;20184;-69
2022/05/27 09:44:17;;;;;;;9.98;4.00;;;24.80;74.00;;;;;;5031409;28;20503;-69
2022/05/27 09:46:44;;;;;;;12.25;4.18;;;25.10;75.50;;;;;;5030598;28;20046;-70
2022/05/27 09:49:10;;;;;;;8.45;3.28;;;24.90;75.00;;;;;;5031389;28;20068;-70
2022/05/27 09:51:35;;;;;;;9.77;3.60;;;25.00;75.00;;;;;;5015188;28;20041;-70
2022/05/27 09:54:13;;;;;;;9.45;3.53;;;25.20;75.00;;;;;;5031472;28;20124;-70
2022/05/27 09:56:43;;;;;;;10.13;3.97;;;25.10;73.70;;;;;;5030958;28;20128;-70
2022/05/27 09:59:41;;;;;;;7.53;3.78;;;25.20;75.50;;;;;;5046581;28;20045;-70
2022/05/27 10:02:19;;;;;;;9.38;3.65;;;24.90;74.00;;;;;;5031258;28;20384;-71
2022/05/27 10:05:03;;;;;;;10.35;3.17;;;25.10;75.60;;;;;;5030984;28;20068;-70
2022/05/27 10:07:29;;;;;;;9.63;3.50;;;25.10;74.00;;;;;;5030457;28;20049;-70
2022/05/27 10:09:55;;;;;;;9.38;3.75;;;24.90;75.10;;;;;;5030769;28;20049;-69
2022/05/27 10:12:29;;;;;;;8.60;3.47;;;24.80;75.10;;;;;;5030971;28;20042;-70
2022/05/27 10:14:55;;;;;;;8.77;3.08;;;24.70;75.50;;;;;;5033254;28;20095;-70
2022/05/27 10:17:31;;;;;;;10.13;3.03;;;24.90;75.30;;;;;;5072910;28;20049;-70
2022/05/27 10:20:36;;;;;;;9.07;3.30;;;25.00;75.70;;;;;;5073443;28;20521;-70
2022/05/27 10:23:05;;;;;;;11.65;3.75;;;24.60;75.70;;;;;;5072868;28;20139;-70
2022/05/27 10:25:36;;;;;;;8.75;2.90;;;24.80;75.20;;;;;;5073659;28;20044;-70
2022/05/27 10:28:04;;;;;;;9.55;3.00;;;24.90;75.60;;;;;;5104979;28;20123;-71
2022/05/27 10:30:35;;;;;;;11.30;3.70;;;24.70;75.00;;;;;;5076419;28;20044;-71
2022/05/27 10:33:16;;;;;;;7.57;2.92;;;24.80;75.50;;;;;;5062206;28;20041;-71
2022/05/27 10:35:41;;;;;;;11.95;3.50;;;24.70;75.50;;;;;;5070237;28;20050;-72
2022/05/27 10:38:23;;;;;;;9.60;3.00;;;24.90;74.70;;;;;;5104376;28;20380;-71
2022/05/27 10:41:07;;;;;;;11.63;3.30;;;24.40;73.40;;;;;;5086924;28;20044;-70
2022/05/27 10:43:54;;;;;;;9.85;2.78;;;24.70;73.60;;;;;;5070225;28;20049;-71
2022/05/27 10:46:22;;;;;;;15.18;3.58;;;24.60;73.70;;;;;;5057115;28;20080;-71
2022/05/27 10:48:54;;;;;;;9.35;2.67;;;24.60;75.00;;;;;;5073119;28;20045;-71
2022/05/27 10:51:33;;;;;;;7.78;2.65;;;24.70;73.50;;;;;;5072410;28;20087;-71
2022/05/27 10:54:21;;;;;;;20.35;3.13;;;24.40;74.50;;;;;;5088095;28;20430;-71
2022/05/27 11:03:11;;;;;;;7.47;2.60;;;24.60;74.30;;;;;;5071392;28;20048;-70
2022/05/27 11:05:50;;;;;;;9.80;2.63;;;24.40;73.80;;;;;;5063011;28;20048;-71
2022/05/27 11:08:26;;;;;;;8.50;2.60;;;24.40;73.60;;;;;;5071473;28;20080;-71
2022/05/27 11:11:30;;;;;;;9.00;2.42;;;24.50;75.30;;;;;;5073421;28;20582;-70
2022/05/27 11:16:58;;;;;;;7.75;2.45;;;24.50;73.60;;;;;;5102171;28;20417;-69
2022/05/27 11:19:52;;;;;;;9.20;2.60;;;24.40;73.40;;;;;;5092002;28;20074;-69
2022/05/27 11:22:27;;;;;;;6.97;2.50;;;24.40;73.90;;;;;;5076303;28;20044;-68
2022/05/27 11:25:00;;;;;;;8.60;2.70;;;24.70;73.70;;;;;;5075670;28;20517;-62
2022/05/27 11:27:50;;;;;;;9.35;2.47;;;24.50;73.50;;;;;;5109021;28;20121;-68
2022/05/27 11:30:24;;;;;;;10.40;2.97;;;24.40;73.80;;;;;;5074979;28;20080;-70
2022/05/27 11:33:06;;;;;;;7.20;2.67;;;24.30;73.50;;;;;;5072470;28;20091;-62
2022/05/27 11:36:09;;;;;;;8.25;2.35;;;24.30;73.80;;;;;;5108156;28;20048;-68
2022/05/27 11:38:54;;;;;;;8.35;2.40;;;24.60;74.00;;;;;;5074913;28;20048;-68
2022/05/27 11:41:40;;;;;;;9.75;2.42;;;24.40;75.00;;;;;;5074989;28;20052;-67
2022/05/27 11:44:32;;;;;;;9.38;2.60;;;24.30;74.20;;;;;;5055632;28;20107;-67
2022/05/27 11:47:16;;;;;;;6.63;2.17;;;24.40;73.50;;;;;;5070172;28;20044;-70
2022/05/27 11:50:03;;;;;;;6.13;2.40;;;24.40;73.80;;;;;;5074236;28;20052;-70
2022/05/27 12:03:45;;;;;;;10.80;2.60;;;24.60;75.10;;;;;;5152928;27;20331;-74
2022/05/27 12:06:16;;;;;;;9.93;2.42;;;24.50;74.10;;;;;;5107152;28;20057;-73
2022/05/27 12:09:02;;;;;;;15.90;2.65;;;24.40;77.40;;;;;;5087150;28;20122;-75
2022/05/27 12:11:37;;;;;;;7.55;2.25;;;24.50;75.10;;;;;;5110846;28;20142;-77
2022/05/27 12:14:29;;;;;;;10.00;2.50;;;24.40;75.10;;;;;;5059855;28;20397;-76
2022/05/27 12:16:55;;;;;;;9.73;2.42;;;24.60;73.50;;;;;;5035354;28;20486;-61
2022/05/27 12:19:24;;;;;;;6.93;2.38;;;24.20;74.60;;;;;;5071637;28;20044;-61
2022/05/27 12:22:12;;;;;;;11.90;2.60;;;24.50;75.30;;;;;;5062235;28;20061;-61
2022/05/27 12:24:47;;;;;;;11.48;3.13;;;24.10;73.50;;;;;;5061960;28;20060;-75
2022/05/27 12:27:14;;;;;;;9.13;2.53;;;24.30;73.50;;;;;;5051155;28;20525;-73
2022/05/27 12:29:39;;;;;;;7.75;2.72;;;24.10;74.80;;;;;;5024728;28;20120;-76
2022/05/27 12:32:08;;;;;;;7.47;2.30;;;24.30;78.00;;;;;;5053791;28;20119;-74
2022/05/27 12:34:35;;;;;;;11.35;2.40;;;24.20;77.90;;;;;;5051482;28;20053;-75
2022/05/27 12:37:12;;;;;;;12.93;2.30;;;24.20;75.20;;;;;;5067896;28;20045;-76
2022/05/27 12:39:37;;;;;;;11.57;2.83;;;24.10;73.50;;;;;;5082806;28;20120;-76
2022/05/27 12:42:12;;;;;;;12.88;3.22;;;24.00;74.40;;;;;;5067753;28;20608;-74
2022/05/27 12:44:39;;;;;;;7.40;2.22;;;24.20;73.90;;;;;;5050983;28;20053;-72
2022/05/27 12:47:05;;;;;;;12.43;2.72;;;24.00;77.10;;;;;;5034598;28;20083;-76
2022/05/27 12:49:37;;;;;;;8.60;2.10;;;24.00;74.00;;;;;;5051042;28;20524;-75
2022/05/27 12:52:08;;;;;;;11.98;3.08;;;24.00;76.50;;;;;;5050080;28;20045;-75
2022/05/27 12:54:43;;;;;;;11.30;3.30;;;24.00;74.10;;;;;;5102143;28;20048;-73
2022/05/27 13:00:57;;;;;;;254.52;18.83;;;23.80;75.90;;;;;;5082963;28;20052;-77
2022/05/27 13:03:35;;;;;;;327.27;25.33;;;23.80;76.10;;;;;;5103498;28;20039;-81
2022/05/27 13:06:18;;;;;;;909.15;77.55;;;23.70;75.80;;;;;;5078152;28;20131;-81
2022/05/27 13:08:48;;;;;;;528.45;44.50;;;23.90;72.30;;;;;;5096894;28;20051;-79
2022/05/27 13:11:35;;;;;;;307.92;22.30;;;23.80;76.00;;;;;;5077568;28;20044;-80
2022/05/27 13:14:04;;;;;;;268.42;19.40;;;23.80;76.00;;;;;;5097960;28;20089;-77
2022/05/27 13:16:31;;;;;;;185.40;15.30;;;23.60;75.80;;;;;;5107517;28;20391;-75
2022/05/27 13:19:07;;;;;;;160.88;15.25;;;23.80;75.80;;;;;;5081368;28;20122;-76
2022/05/27 13:21:47;;;;;;;165.38;15.45;;;23.60;73.30;;;;;;5098723;28;20127;-71
2022/05/27 13:24:12;;;;;;;152.20;14.75;;;23.50;75.90;;;;;;5066199;28;20044;-61
2022/05/27 13:26:58;;;;;;;159.48;14.43;;;23.80;76.00;;;;;;5096697;28;20454;-61
2022/05/27 13:29:36;;;;;;;128.35;12.27;;;23.50;72.10;;;;;;5077741;28;20119;-79
2022/05/27 13:32:11;;;;;;;128.05;11.27;;;23.60;76.30;;;;;;5077577;28;20401;-69
2022/05/27 13:34:56;;;;;;;55.40;8.00;;;23.80;76.70;;;;;;5096587;28;20072;-65
2022/05/27 13:37:38;;;;;;;77.13;8.32;;;24.00;76.70;;;;;;5077531;28;20052;-78
2022/05/27 13:40:08;;;;;;;46.10;6.73;;;23.80;72.80;;;;;;5097239;28;20055;-79
2022/05/27 13:42:44;;;;;;;53.78;6.15;;;23.70;77.00;;;;;;5116052;28;20101;-77
2022/05/27 13:45:15;;;;;;;42.45;5.28;;;23.50;74.50;;;;;;5087201;28;20047;-78
2022/05/27 13:47:44;;;;;;;34.88;6.05;;;23.60;73.80;;;;;;5099959;28;20047;-60
2022/05/27 13:50:30;;;;;;;38.33;5.13;;;23.60;76.90;;;;;;5078672;28;20106;-61